createdAt,value
2023-11-16T00:00:20.216Z,21.44
2023-11-16T00:01:25.948Z,21.43
2023-11-16T00:02:31.556Z,21.42
2023-11-16T00:03:37.217Z,21.44
2023-11-16T00:04:42.866Z,21.44
2023-11-16T00:05:48.727Z,21.44
2023-11-16T00:06:54.265Z,21.43
2023-11-16T00:07:59.795Z,21.44
2023-11-16T00:09:05.354Z,21.42
2023-11-16T00:10:10.978Z,21.41
2023-11-16T00:11:16.542Z,21.42
2023-11-16T00:12:22.074Z,21.42
2023-11-16T00:13:27.765Z,21.42
2023-11-16T00:14:33.342Z,21.42
2023-11-16T00:15:38.910Z,21.42
2023-11-16T00:16:44.711Z,21.42
2023-11-16T00:17:50.308Z,21.42
2023-11-16T00:18:55.965Z,21.41
2023-11-16T00:20:01.511Z,21.41
2023-11-16T00:21:07.057Z,21.42
2023-11-16T00:22:12.763Z,21.4
2023-11-16T00:23:18.287Z,21.41
2023-11-16T00:24:23.840Z,21.4
2023-11-16T00:25:29.493Z,21.4
2023-11-16T00:26:35.122Z,21.38
2023-11-16T00:27:40.731Z,21.37
2023-11-16T00:28:46.250Z,21.35
2023-11-16T00:29:51.769Z,21.36
2023-11-16T00:30:57.316Z,21.36
2023-11-16T00:32:02.943Z,21.38
2023-11-16T00:33:08.501Z,21.39
2023-11-16T00:34:14.327Z,21.37
2023-11-16T00:35:19.882Z,21.37
2023-11-16T00:36:25.432Z,21.36
2023-11-16T00:37:31.134Z,21.36
2023-11-16T00:38:36.658Z,21.37
2023-11-16T00:39:42.250Z,21.35
2023-11-16T00:40:48.076Z,21.35
2023-11-16T00:41:53.591Z,21.35
2023-11-16T00:42:59.117Z,21.34
2023-11-16T00:44:04.708Z,21.34
2023-11-16T00:45:12.765Z,21.34
2023-11-16T00:46:18.496Z,21.35
2023-11-16T00:47:24.069Z,21.35
2023-11-16T00:48:29.665Z,21.36
2023-11-16T00:49:35.308Z,21.34
2023-11-16T00:50:40.853Z,21.33
2023-11-16T00:51:46.370Z,21.33
2023-11-16T00:52:51.954Z,21.33
2023-11-16T00:53:57.517Z,21.31
2023-11-16T00:55:03.135Z,21.32
2023-11-16T00:56:09.167Z,21.29
2023-11-16T00:57:14.767Z,21.3
2023-11-16T00:58:20.388Z,21.27
2023-11-16T00:59:25.896Z,21.27
2023-11-16T01:00:31.518Z,21.27
2023-11-16T01:01:37.147Z,21.29
2023-11-16T01:02:42.801Z,21.29
2023-11-16T01:03:48.708Z,21.26
2023-11-16T01:04:54.505Z,21.25
2023-11-16T01:06:00.097Z,21.26
2023-11-16T01:07:05.706Z,21.25
2023-11-16T01:08:11.282Z,21.27
2023-11-16T01:09:16.802Z,21.28
2023-11-16T01:10:22.445Z,21.27
2023-11-16T01:11:27.971Z,21.28
2023-11-16T01:12:33.505Z,21.27
2023-11-16T01:13:39.221Z,21.24
2023-11-16T01:14:44.826Z,21.23
2023-11-16T01:15:50.543Z,21.24
2023-11-16T01:16:56.164Z,21.25
2023-11-16T01:18:02.039Z,21.25
2023-11-16T01:19:07.806Z,21.26
2023-11-16T01:20:13.366Z,21.27
2023-11-16T01:21:18.921Z,21.27
2023-11-16T01:22:24.668Z,21.29
2023-11-16T01:23:30.225Z,21.28
2023-11-16T01:24:35.820Z,21.28
2023-11-16T01:25:41.507Z,21.29
2023-11-16T01:27:52.606Z,21.3
2023-11-16T01:28:58.386Z,21.3
2023-11-16T01:30:06.667Z,21.29
2023-11-16T01:31:12.396Z,21.28
2023-11-16T01:32:18.101Z,21.25
2023-11-16T01:33:23.655Z,21.27
2023-11-16T01:34:29.230Z,21.25
2023-11-16T01:35:34.831Z,21.27
2023-11-16T01:36:40.532Z,21.26
2023-11-16T01:37:48.451Z,21.25
2023-11-16T01:38:54.003Z,21.25
2023-11-16T01:39:59.537Z,21.26
2023-11-16T01:41:05.054Z,21.23
2023-11-16T01:42:11.130Z,21.23
2023-11-16T01:43:17.049Z,21.21
2023-11-16T01:44:22.532Z,21.22
2023-11-16T01:45:28.048Z,21.22
2023-11-16T01:46:33.842Z,21.22
2023-11-16T01:47:39.814Z,21.2
2023-11-16T01:48:45.394Z,21.2
2023-11-16T01:49:51.070Z,21.2
2023-11-16T01:50:56.545Z,21.19
2023-11-16T01:52:02.259Z,21.18
2023-11-16T01:53:07.741Z,21.19
2023-11-16T01:54:13.287Z,21.18
2023-11-16T01:55:18.873Z,21.19
2023-11-16T01:56:24.425Z,21.19
2023-11-16T01:57:29.966Z,21.21
2023-11-16T01:58:35.539Z,21.2
2023-11-16T01:59:41.024Z,21.18
2023-11-16T02:00:46.526Z,21.19
2023-11-16T02:01:52.087Z,21.19
2023-11-16T02:02:57.671Z,21.17
2023-11-16T02:04:04.533Z,21.2
2023-11-16T02:05:15.255Z,21.18
2023-11-16T02:06:20.776Z,21.17
2023-11-16T02:07:26.409Z,21.18
2023-11-16T02:08:31.912Z,21.18
2023-11-16T02:09:37.480Z,21.19
2023-11-16T02:10:43.035Z,21.17
2023-11-16T02:11:48.507Z,21.15
2023-11-16T02:12:54.285Z,21.15
2023-11-16T02:13:59.793Z,21.15
2023-11-16T02:15:05.337Z,21.14
2023-11-16T02:16:10.992Z,21.13
2023-11-16T02:17:16.648Z,21.13
2023-11-16T02:18:22.149Z,21.16
2023-11-16T02:19:27.671Z,21.15
2023-11-16T02:20:33.180Z,21.14
2023-11-16T02:21:38.709Z,21.13
2023-11-16T02:22:44.325Z,21.14
2023-11-16T02:23:49.805Z,21.14
2023-11-16T02:24:55.267Z,21.14
2023-11-16T02:26:00.757Z,21.12
2023-11-16T02:27:06.337Z,21.12
2023-11-16T02:28:11.922Z,21.12
2023-11-16T02:29:17.438Z,21.13
2023-11-16T02:30:22.917Z,21.14
2023-11-16T02:31:37.553Z,21.16
2023-11-16T02:32:44.283Z,21.18
2023-11-16T02:33:49.927Z,21.18
2023-11-16T02:34:55.493Z,21.15
2023-11-16T02:36:00.984Z,21.16
2023-11-16T02:37:06.455Z,21.14
2023-11-16T02:38:11.982Z,21.14
2023-11-16T02:39:17.798Z,21.14
2023-11-16T02:40:23.542Z,21.15
2023-11-16T02:41:29.067Z,21.14
2023-11-16T02:42:34.690Z,21.14
2023-11-16T02:43:40.263Z,21.13
2023-11-16T02:44:45.741Z,21.15
2023-11-16T02:45:51.255Z,21.15
2023-11-16T02:46:56.753Z,21.15
2023-11-16T02:48:02.352Z,21.13
2023-11-16T02:49:08.307Z,21.1
2023-11-16T02:50:13.905Z,21.11
2023-11-16T02:51:19.455Z,21.11
2023-11-16T02:52:25.188Z,21.12
2023-11-16T02:53:30.681Z,21.1
2023-11-16T02:54:36.293Z,21.11
2023-11-16T02:55:41.925Z,21.1
2023-11-16T02:56:47.429Z,21.08
2023-11-16T02:57:52.905Z,21.09
2023-11-16T02:58:58.411Z,21.11
2023-11-16T03:00:04.033Z,21.1
2023-11-16T03:01:09.916Z,21.09
2023-11-16T03:02:15.467Z,21.08
2023-11-16T03:03:20.932Z,21.08
2023-11-16T03:04:26.536Z,21.08
2023-11-16T03:05:32.160Z,21.09
2023-11-16T03:06:37.714Z,21.1
2023-11-16T03:07:43.379Z,21.11
2023-11-16T03:08:48.897Z,21.1
2023-11-16T03:09:54.515Z,21.1
2023-11-16T03:11:00.020Z,21.09
2023-11-16T03:12:05.591Z,21.09
2023-11-16T03:13:11.260Z,21.1
2023-11-16T03:14:17.786Z,21.08
2023-11-16T03:15:23.272Z,21.1
2023-11-16T03:16:28.961Z,21.12
2023-11-16T03:17:34.538Z,21.13
2023-11-16T03:18:40.191Z,21.12
2023-11-16T03:19:46.063Z,21.13
2023-11-16T03:20:51.596Z,21.14
2023-11-16T03:21:57.202Z,21.15
2023-11-16T03:23:02.725Z,21.14
2023-11-16T03:24:08.264Z,21.14
2023-11-16T03:25:13.883Z,21.15
2023-11-16T03:26:19.418Z,21.15
2023-11-16T03:27:24.969Z,21.16
2023-11-16T03:28:30.568Z,21.18
2023-11-16T03:29:36.066Z,21.17
2023-11-16T03:30:44.633Z,21.17
2023-11-16T03:31:50.320Z,21.17
2023-11-16T03:32:55.864Z,21.17
2023-11-16T03:34:01.542Z,21.17
2023-11-16T03:35:07.014Z,21.18
2023-11-16T03:36:12.525Z,21.17
2023-11-16T03:37:18.087Z,21.17
2023-11-16T03:38:23.634Z,21.17
2023-11-16T03:39:29.130Z,21.17
2023-11-16T03:40:34.714Z,21.18
2023-11-16T03:41:40.197Z,21.18
2023-11-16T03:42:45.702Z,21.18
2023-11-16T03:43:51.229Z,21.19
2023-11-16T03:44:56.675Z,21.19
2023-11-16T03:46:02.246Z,21.17
2023-11-16T03:47:07.846Z,21.18
2023-11-16T03:48:13.511Z,21.18
2023-11-16T03:49:19.473Z,21.17
2023-11-16T03:50:24.964Z,21.18
2023-11-16T03:51:30.481Z,21.17
2023-11-16T03:52:36.067Z,21.18
2023-11-16T03:53:41.595Z,21.18
2023-11-16T03:54:47.128Z,21.18
2023-11-16T03:55:52.606Z,21.17
2023-11-16T03:56:58.128Z,21.18
2023-11-16T03:58:03.654Z,21.18
2023-11-16T03:59:09.141Z,21.17
2023-11-16T04:00:14.674Z,21.18
2023-11-16T04:01:20.315Z,21.18
2023-11-16T04:02:25.913Z,21.18
2023-11-16T04:03:34.640Z,21.17
2023-11-16T04:04:40.602Z,21.19
2023-11-16T04:05:46.085Z,21.21
2023-11-16T04:06:51.608Z,21.23
2023-11-16T04:07:57.098Z,21.22
2023-11-16T04:09:02.657Z,21.18
2023-11-16T04:10:08.172Z,21.15
2023-11-16T04:11:13.691Z,21.12
2023-11-16T04:12:19.196Z,21.09
2023-11-16T04:13:24.784Z,21.06
2023-11-16T04:14:30.270Z,21.03
2023-11-16T04:15:35.789Z,21.01
2023-11-16T04:16:41.370Z,20.98
2023-11-16T04:17:46.921Z,20.95
2023-11-16T04:18:52.487Z,20.96
2023-11-16T04:19:58.203Z,20.95
2023-11-16T04:21:03.747Z,20.95
2023-11-16T04:22:09.274Z,20.96
2023-11-16T04:23:14.767Z,20.95
2023-11-16T04:24:20.251Z,20.93
2023-11-16T04:25:25.845Z,20.93
2023-11-16T04:26:31.865Z,20.95
2023-11-16T04:27:37.354Z,20.93
2023-11-16T04:28:42.922Z,20.94
2023-11-16T04:29:48.433Z,20.93
2023-11-16T04:30:54.054Z,20.95
2023-11-16T04:32:00.085Z,20.95
2023-11-16T04:33:05.615Z,20.93
2023-11-16T04:34:11.336Z,20.92
2023-11-16T04:35:17.049Z,20.92
2023-11-16T04:36:22.648Z,20.92
2023-11-16T04:37:28.242Z,20.92
2023-11-16T04:38:33.809Z,20.92
2023-11-16T04:39:39.440Z,20.92
2023-11-16T04:40:45.051Z,20.92
2023-11-16T04:41:50.580Z,20.92
2023-11-16T04:42:56.055Z,20.93
2023-11-16T04:44:01.520Z,20.92
2023-11-16T04:45:07.111Z,20.91
2023-11-16T04:46:12.855Z,20.91
2023-11-16T04:47:18.395Z,20.89
2023-11-16T04:48:23.964Z,20.89
2023-11-16T04:49:29.838Z,20.89
2023-11-16T04:50:35.497Z,20.87
2023-11-16T04:51:41.043Z,20.87
2023-11-16T04:52:46.604Z,20.87
2023-11-16T04:53:52.485Z,20.9
2023-11-16T04:54:58.017Z,20.87
2023-11-16T04:56:03.559Z,20.89
2023-11-16T04:57:09.044Z,20.88
2023-11-16T04:58:14.646Z,20.88
2023-11-16T04:59:20.150Z,20.88
2023-11-16T05:00:25.673Z,20.87
2023-11-16T05:01:31.279Z,20.88
2023-11-16T05:02:36.897Z,20.85
2023-11-16T05:03:42.532Z,20.84
2023-11-16T05:04:48.631Z,20.84
2023-11-16T05:05:54.158Z,20.84
2023-11-16T05:06:59.803Z,20.87
2023-11-16T05:08:05.314Z,20.92
2023-11-16T05:09:10.818Z,20.94
2023-11-16T05:10:16.427Z,20.98
2023-11-16T05:11:22.786Z,21.01
2023-11-16T05:12:28.318Z,21.05
2023-11-16T05:13:34.199Z,21.09
2023-11-16T05:14:39.708Z,21.16
2023-11-16T05:15:45.341Z,21.22
2023-11-16T05:16:51.432Z,21.29
2023-11-16T05:17:57.052Z,21.36
2023-11-16T05:19:02.604Z,21.4
2023-11-16T05:20:08.107Z,21.44
2023-11-16T05:21:16.888Z,21.48
2023-11-16T05:22:23.457Z,21.52
2023-11-16T05:23:29.001Z,21.56
2023-11-16T05:24:34.520Z,21.57
2023-11-16T05:25:40.251Z,21.6
2023-11-16T05:26:45.720Z,21.62
2023-11-16T05:27:54.194Z,21.64
2023-11-16T05:28:59.652Z,21.66
2023-11-16T05:30:05.207Z,21.67
2023-11-16T05:31:10.732Z,21.69
2023-11-16T05:32:16.403Z,21.69
2023-11-16T05:33:21.886Z,21.72
2023-11-16T05:34:27.484Z,21.73
2023-11-16T05:35:33.055Z,21.75
2023-11-16T05:36:38.538Z,21.76
2023-11-16T05:37:44.219Z,21.77
2023-11-16T05:38:49.686Z,21.77
2023-11-16T05:39:55.179Z,21.77
2023-11-16T05:41:00.786Z,21.78
2023-11-16T05:42:06.362Z,21.78
2023-11-16T05:43:11.859Z,21.79
2023-11-16T05:44:17.410Z,21.77
2023-11-16T05:45:22.928Z,21.77
2023-11-16T05:46:28.558Z,21.76
2023-11-16T05:47:34.177Z,21.75
2023-11-16T05:48:39.826Z,21.74
2023-11-16T05:49:45.437Z,21.72
2023-11-16T05:50:50.919Z,21.7
2023-11-16T05:51:56.640Z,21.69
2023-11-16T05:53:02.233Z,21.69
2023-11-16T05:54:07.704Z,21.68
2023-11-16T05:55:13.351Z,21.67
2023-11-16T05:56:18.834Z,21.66
2023-11-16T05:57:24.360Z,21.64
2023-11-16T05:58:29.993Z,21.62
2023-11-16T05:59:35.520Z,21.59
2023-11-16T06:00:41.100Z,21.58
2023-11-16T06:01:46.889Z,21.58
2023-11-16T06:02:52.498Z,21.56
2023-11-16T06:03:58.393Z,21.53
2023-11-16T06:05:04.315Z,21.51
2023-11-16T06:06:09.880Z,21.51
2023-11-16T06:07:15.423Z,21.48
2023-11-16T06:08:20.937Z,21.47
2023-11-16T06:09:26.389Z,21.47
2023-11-16T06:10:32.009Z,21.46
2023-11-16T06:11:37.485Z,21.44
2023-11-16T06:12:42.956Z,21.43
2023-11-16T06:13:48.730Z,21.42
2023-11-16T06:14:54.275Z,21.41
2023-11-16T06:15:59.930Z,21.41
2023-11-16T06:17:05.587Z,21.41
2023-11-16T06:18:11.375Z,21.41
2023-11-16T06:19:17.244Z,21.41
2023-11-16T06:20:22.691Z,21.4
2023-11-16T06:21:28.227Z,21.4
2023-11-16T06:22:33.869Z,21.39
2023-11-16T06:23:39.363Z,21.4
2023-11-16T06:24:44.872Z,21.4
2023-11-16T06:25:52.816Z,21.4
2023-11-16T06:26:58.399Z,21.39
2023-11-16T06:28:04.050Z,21.38
2023-11-16T06:29:09.525Z,21.37
2023-11-16T06:30:15.288Z,21.36
2023-11-16T06:31:21.013Z,21.35
2023-11-16T06:32:26.594Z,21.36
2023-11-16T06:33:32.245Z,21.37
2023-11-16T06:34:37.929Z,21.36
2023-11-16T06:35:43.405Z,21.36
2023-11-16T06:36:48.903Z,21.35
2023-11-16T06:37:54.484Z,21.36
2023-11-16T06:38:59.997Z,21.35
2023-11-16T06:40:05.492Z,21.34
2023-11-16T06:41:13.835Z,21.34
2023-11-16T06:42:19.315Z,21.32
2023-11-16T06:43:24.833Z,21.31
2023-11-16T06:44:30.354Z,21.31
2023-11-16T06:45:35.899Z,21.31
2023-11-16T06:46:41.654Z,21.32
2023-11-16T06:47:47.355Z,21.35
2023-11-16T06:48:52.973Z,21.38
2023-11-16T06:49:58.649Z,21.42
2023-11-16T06:51:04.132Z,21.41
2023-11-16T06:52:09.632Z,21.43
2023-11-16T06:53:15.187Z,21.44
2023-11-16T06:54:20.688Z,21.44
2023-11-16T06:55:26.217Z,21.45
2023-11-16T06:56:31.704Z,21.45
2023-11-16T06:57:37.262Z,21.46
2023-11-16T06:58:42.935Z,21.46
2023-11-16T06:59:48.405Z,21.46
2023-11-16T07:00:53.972Z,21.45
2023-11-16T07:01:59.568Z,21.44
2023-11-16T07:03:05.275Z,21.43
2023-11-16T07:04:11.135Z,21.42
2023-11-16T07:05:16.947Z,21.41
2023-11-16T07:06:22.466Z,21.41
2023-11-16T07:07:28.114Z,21.39
2023-11-16T07:08:33.606Z,21.38
2023-11-16T07:09:39.207Z,21.37
2023-11-16T07:10:44.812Z,21.38
2023-11-16T07:11:53.316Z,21.38
2023-11-16T07:12:59.209Z,21.37
2023-11-16T07:14:04.834Z,21.36
2023-11-16T07:15:10.341Z,21.36
2023-11-16T07:16:16.043Z,21.36
2023-11-16T07:17:21.842Z,21.36
2023-11-16T07:18:27.823Z,21.36
2023-11-16T07:19:33.583Z,21.37
2023-11-16T07:20:39.092Z,21.37
2023-11-16T07:21:44.588Z,21.37
2023-11-16T07:22:50.248Z,21.37
2023-11-16T07:23:55.743Z,21.37
2023-11-16T07:25:01.236Z,21.38
2023-11-16T07:26:06.753Z,21.37
2023-11-16T07:27:12.283Z,21.37
2023-11-16T07:28:18.260Z,21.37
2023-11-16T07:29:23.780Z,21.35
2023-11-16T07:30:29.279Z,21.36
2023-11-16T07:31:35.047Z,21.36
2023-11-16T07:32:40.681Z,21.37
2023-11-16T07:33:46.412Z,21.36
2023-11-16T07:34:51.986Z,21.36
2023-11-16T07:35:57.507Z,21.35
2023-11-16T07:37:03.008Z,21.35
2023-11-16T07:38:08.540Z,21.37
2023-11-16T07:39:14.188Z,21.36
2023-11-16T07:40:19.832Z,21.34
2023-11-16T07:41:25.337Z,21.34
2023-11-16T07:42:30.890Z,21.35
2023-11-16T07:43:36.468Z,21.34
2023-11-16T07:44:42.008Z,21.34
2023-11-16T07:45:47.522Z,21.33
2023-11-16T07:46:53.139Z,21.32
2023-11-16T07:47:58.806Z,21.32
2023-11-16T07:49:04.739Z,21.32
2023-11-16T07:50:10.331Z,21.32
2023-11-16T07:51:15.914Z,21.33
2023-11-16T07:52:21.478Z,21.33
2023-11-16T07:53:26.980Z,21.33
2023-11-16T07:54:32.552Z,21.33
2023-11-16T07:55:38.186Z,21.33
2023-11-16T07:56:43.693Z,21.32
2023-11-16T07:57:49.919Z,21.33
2023-11-16T07:58:55.846Z,21.33
2023-11-16T08:00:01.432Z,21.33
2023-11-16T08:01:11.581Z,21.33
2023-11-16T08:02:17.096Z,21.33
2023-11-16T08:03:22.772Z,21.33
2023-11-16T08:04:28.709Z,21.32
2023-11-16T08:05:34.680Z,21.32
2023-11-16T08:06:40.196Z,21.32
2023-11-16T08:07:45.769Z,21.32
2023-11-16T08:08:51.285Z,21.31
2023-11-16T08:09:57.063Z,21.32
2023-11-16T08:11:02.657Z,21.31
2023-11-16T08:12:08.198Z,21.31
2023-11-16T08:13:13.697Z,21.32
2023-11-16T08:14:19.241Z,21.33
2023-11-16T08:15:24.743Z,21.31
2023-11-16T08:16:31.783Z,21.3
2023-11-16T08:17:37.996Z,21.32
2023-11-16T08:18:43.608Z,21.34
2023-11-16T08:19:50.976Z,21.37
2023-11-16T08:20:59.109Z,21.41
2023-11-16T08:22:04.616Z,21.44
2023-11-16T08:23:10.141Z,21.47
2023-11-16T08:24:15.828Z,21.5
2023-11-16T08:25:21.395Z,21.52
2023-11-16T08:26:27.112Z,21.55
2023-11-16T08:27:32.649Z,21.55
2023-11-16T08:28:38.205Z,21.54
2023-11-16T08:29:43.694Z,21.56
2023-11-16T08:30:49.243Z,21.56
2023-11-16T08:31:54.981Z,21.55
2023-11-16T08:33:01.444Z,21.55
2023-11-16T08:34:07.141Z,21.55
2023-11-16T08:35:12.662Z,21.53
2023-11-16T08:36:18.255Z,21.52
2023-11-16T08:37:23.984Z,21.52
2023-11-16T08:38:29.523Z,21.51
2023-11-16T08:39:35.042Z,21.5
2023-11-16T08:40:40.710Z,21.49
2023-11-16T08:41:46.176Z,21.48
2023-11-16T08:42:51.699Z,21.47
2023-11-16T08:43:57.631Z,21.47
2023-11-16T08:45:03.146Z,21.46
2023-11-16T08:46:08.871Z,21.45
2023-11-16T08:47:14.629Z,21.44
2023-11-16T08:48:20.438Z,21.43
2023-11-16T08:49:26.197Z,21.42
2023-11-16T08:50:31.742Z,21.43
2023-11-16T08:51:37.242Z,21.44
2023-11-16T08:52:43.333Z,21.43
2023-11-16T08:53:48.892Z,21.42
2023-11-16T08:54:54.495Z,21.43
2023-11-16T08:56:00.096Z,21.43
2023-11-16T08:57:05.585Z,21.44
2023-11-16T08:58:11.088Z,21.44
2023-11-16T08:59:16.973Z,21.43
2023-11-16T09:00:22.595Z,21.43
2023-11-16T09:01:28.206Z,21.42
2023-11-16T09:02:33.799Z,21.41
2023-11-16T09:03:39.465Z,21.4
2023-11-16T09:04:45.150Z,21.4
2023-11-16T09:05:51.029Z,21.39
2023-11-16T09:06:56.600Z,21.39
2023-11-16T09:08:02.159Z,21.38
2023-11-16T09:09:07.750Z,21.37
2023-11-16T09:10:13.788Z,21.38
2023-11-16T09:11:19.375Z,21.38
2023-11-16T09:12:24.936Z,21.38
2023-11-16T09:13:30.914Z,21.38
2023-11-16T09:14:36.521Z,21.38
2023-11-16T09:15:42.100Z,21.38
2023-11-16T09:16:51.437Z,21.37
2023-11-16T09:18:16.391Z,21.36
2023-11-16T09:19:22.250Z,21.35
2023-11-16T09:20:27.881Z,21.36
2023-11-16T09:21:33.379Z,21.35
2023-11-16T09:22:39.048Z,21.35
2023-11-16T09:23:44.523Z,21.33
2023-11-16T09:24:50.071Z,21.34
2023-11-16T09:25:55.941Z,21.35
2023-11-16T09:27:01.430Z,21.34
2023-11-16T09:28:07.499Z,21.35
2023-11-16T09:29:13.997Z,21.34
2023-11-16T09:30:19.511Z,21.34
2023-11-16T09:31:25.105Z,21.34
2023-11-16T09:32:30.632Z,21.33
2023-11-16T09:33:36.342Z,21.32
2023-11-16T09:34:41.961Z,21.31
2023-11-16T09:35:47.423Z,21.31
2023-11-16T09:36:52.980Z,21.3
2023-11-16T09:38:01.407Z,21.3
2023-11-16T09:39:06.934Z,21.31
2023-11-16T09:40:12.467Z,21.31
2023-11-16T09:41:17.981Z,21.33
2023-11-16T09:42:23.456Z,21.32
2023-11-16T09:43:28.992Z,21.32
2023-11-16T09:44:34.486Z,21.31
2023-11-16T09:45:40.077Z,21.33
2023-11-16T09:46:46.104Z,21.35
2023-11-16T09:47:51.773Z,21.38
2023-11-16T09:48:57.563Z,21.42
2023-11-16T09:50:03.709Z,21.45
2023-11-16T09:51:09.195Z,21.48
2023-11-16T09:52:14.736Z,21.5
2023-11-16T09:53:20.295Z,21.53
2023-11-16T09:54:25.783Z,21.54
2023-11-16T09:55:31.445Z,21.57
2023-11-16T09:56:39.388Z,21.57
2023-11-16T09:57:53.923Z,21.58
2023-11-16T09:59:01.459Z,21.59
2023-11-16T10:00:06.953Z,21.59
2023-11-16T10:01:12.514Z,21.6
2023-11-16T10:02:18.136Z,21.6
2023-11-16T10:03:23.810Z,21.59
2023-11-16T10:04:29.712Z,21.6
2023-11-16T10:05:35.393Z,21.58
2023-11-16T10:06:41.159Z,21.57
2023-11-16T10:07:46.701Z,21.56
2023-11-16T10:08:52.215Z,21.56
2023-11-16T10:09:57.703Z,21.55
2023-11-16T10:11:03.510Z,21.54
2023-11-16T10:12:08.999Z,21.53
2023-11-16T10:13:14.585Z,21.52
2023-11-16T10:14:20.050Z,21.51
2023-11-16T10:15:25.611Z,21.5
2023-11-16T10:16:31.408Z,21.47
2023-11-16T10:17:37.074Z,21.46
2023-11-16T10:18:42.722Z,21.47
2023-11-16T10:19:48.335Z,21.45
2023-11-16T10:20:53.823Z,21.45
2023-11-16T10:21:59.286Z,21.44
2023-11-16T10:23:04.896Z,21.42
2023-11-16T10:24:10.412Z,21.41
2023-11-16T10:25:15.979Z,21.41
2023-11-16T10:26:21.551Z,21.43
2023-11-16T10:27:27.101Z,21.44
2023-11-16T10:28:32.674Z,21.44
2023-11-16T10:29:38.132Z,21.44
2023-11-16T10:30:43.746Z,21.43
2023-11-16T10:31:49.410Z,21.43
2023-11-16T10:32:55.047Z,21.43
2023-11-16T10:34:00.678Z,21.43
2023-11-16T10:35:06.461Z,21.43
2023-11-16T10:36:11.983Z,21.42
2023-11-16T10:37:17.552Z,21.41
2023-11-16T10:38:23.022Z,21.42
2023-11-16T10:39:28.599Z,21.41
2023-11-16T10:40:34.219Z,21.41
2023-11-16T10:41:39.753Z,21.39
2023-11-16T10:42:45.364Z,21.39
2023-11-16T10:43:51.021Z,21.39
2023-11-16T10:44:56.493Z,21.38
2023-11-16T10:46:02.537Z,21.39
2023-11-16T10:47:09.167Z,21.38
2023-11-16T10:48:15.025Z,21.38
2023-11-16T10:49:20.795Z,21.38
2023-11-16T10:50:29.888Z,21.38
2023-11-16T10:51:35.386Z,21.37
2023-11-16T10:52:40.975Z,21.37
2023-11-16T10:53:46.503Z,21.37
2023-11-16T10:54:52.004Z,21.36
2023-11-16T10:55:57.663Z,21.36
2023-11-16T10:57:03.133Z,21.36
2023-11-16T10:58:08.614Z,21.36
2023-11-16T10:59:14.174Z,21.37
2023-11-16T11:00:19.710Z,21.36
2023-11-16T11:01:25.331Z,21.34
2023-11-16T11:02:31.023Z,21.32
2023-11-16T11:03:36.851Z,21.32
2023-11-16T11:04:43.033Z,21.33
2023-11-16T11:05:48.818Z,21.33
2023-11-16T11:06:54.383Z,21.33
2023-11-16T11:07:59.956Z,21.32
2023-11-16T11:09:05.438Z,21.32
2023-11-16T11:10:10.937Z,21.33
2023-11-16T11:11:16.451Z,21.33
2023-11-16T11:12:21.950Z,21.33
2023-11-16T11:13:27.564Z,21.32
2023-11-16T11:14:33.113Z,21.32
2023-11-16T11:15:38.613Z,21.32
2023-11-16T11:16:44.500Z,21.34
2023-11-16T11:17:50.096Z,21.36
2023-11-16T11:18:55.728Z,21.4
2023-11-16T11:20:02.615Z,21.41
2023-11-16T11:21:08.133Z,21.43
2023-11-16T11:22:13.622Z,21.46
2023-11-16T11:23:19.143Z,21.46
2023-11-16T11:24:24.605Z,21.5
2023-11-16T11:25:30.194Z,21.54
2023-11-16T11:26:35.794Z,21.54
2023-11-16T11:27:41.305Z,21.52
2023-11-16T11:28:46.934Z,21.52
2023-11-16T11:29:52.438Z,21.53
2023-11-16T11:30:58.001Z,21.53
2023-11-16T11:32:06.022Z,21.52
2023-11-16T11:33:13.263Z,21.53
2023-11-16T11:34:18.931Z,21.52
2023-11-16T11:35:24.546Z,21.53
2023-11-16T11:36:30.035Z,21.52
2023-11-16T11:37:35.564Z,21.52
2023-11-16T11:38:41.084Z,21.49
2023-11-16T11:39:46.855Z,21.48
2023-11-16T11:40:53.239Z,21.46
2023-11-16T11:41:58.798Z,21.43
2023-11-16T11:43:04.357Z,21.4
2023-11-16T11:44:09.959Z,21.38
2023-11-16T11:45:20.413Z,21.34
2023-11-16T11:46:26.208Z,21.32
2023-11-16T11:47:31.790Z,21.29
2023-11-16T11:48:37.468Z,21.28
2023-11-16T11:49:43.247Z,21.27
2023-11-16T11:50:48.730Z,21.26
2023-11-16T11:51:54.361Z,21.23
2023-11-16T11:53:00.394Z,21.23
2023-11-16T11:54:05.932Z,21.25
2023-11-16T11:55:11.480Z,21.21
2023-11-16T11:56:16.977Z,21.19
2023-11-16T11:57:24.906Z,21.19
2023-11-16T11:58:43.901Z,21.19
2023-11-16T11:59:49.506Z,21.17
2023-11-16T12:00:55.001Z,21.15
2023-11-16T12:02:00.644Z,21.13
2023-11-16T12:03:06.211Z,21.13
2023-11-16T12:04:16.674Z,21.11
2023-11-16T12:05:27.386Z,21.09
2023-11-16T12:06:33.429Z,21.08
2023-11-16T12:07:39.075Z,21.06
2023-11-16T12:08:44.542Z,21.03
2023-11-16T12:09:50.089Z,21.04
2023-11-16T12:10:55.832Z,21.06
2023-11-16T12:12:02.097Z,21.07
2023-11-16T12:13:07.726Z,21.06
2023-11-16T12:14:13.508Z,21.06
2023-11-16T12:15:19.006Z,21.06
2023-11-16T12:16:24.771Z,21.06
2023-11-16T12:17:30.424Z,21.05
2023-11-16T12:18:36.017Z,21.03
2023-11-16T12:19:41.714Z,21.04
2023-11-16T12:20:47.352Z,21.03
2023-11-16T12:21:52.868Z,21.03
2023-11-16T12:22:58.574Z,21.03
2023-11-16T12:24:04.081Z,21.03
2023-11-16T12:25:09.569Z,21.01
2023-11-16T12:26:15.087Z,21
2023-11-16T12:27:20.587Z,20.99
2023-11-16T12:28:26.639Z,20.98
2023-11-16T12:29:32.147Z,20.98
2023-11-16T12:30:37.669Z,20.97
2023-11-16T12:31:43.638Z,20.94
2023-11-16T12:32:49.399Z,20.93
2023-11-16T12:33:54.999Z,20.93
2023-11-16T12:35:00.799Z,20.93
2023-11-16T12:36:06.291Z,20.84
2023-11-16T12:37:11.822Z,20.84
2023-11-16T12:38:17.345Z,20.88
2023-11-16T12:39:22.862Z,20.92
2023-11-16T12:40:28.439Z,20.96
2023-11-16T12:41:33.945Z,21.01
2023-11-16T12:42:39.480Z,21.06
2023-11-16T12:43:45.055Z,21.11
2023-11-16T12:44:50.559Z,21.17
2023-11-16T12:45:56.977Z,21.19
2023-11-16T12:47:02.712Z,21.24
2023-11-16T12:48:08.763Z,21.26
2023-11-16T12:49:14.407Z,21.28
2023-11-16T12:50:20.022Z,21.29
2023-11-16T12:51:25.626Z,21.29
2023-11-16T12:52:31.290Z,21.3
2023-11-16T12:53:36.819Z,21.29
2023-11-16T12:54:42.360Z,21.28
2023-11-16T12:55:48.037Z,21.29
2023-11-16T12:56:53.513Z,21.29
2023-11-16T12:57:59.030Z,21.28
2023-11-16T12:59:04.810Z,21.26
2023-11-16T13:00:11.421Z,21.25
2023-11-16T13:01:17.176Z,21.27
2023-11-16T13:02:22.893Z,21.26
2023-11-16T13:03:35.204Z,21.26
2023-11-16T13:04:55.207Z,21.24
2023-11-16T13:06:00.912Z,21.24
2023-11-16T13:07:06.433Z,21.25
2023-11-16T13:08:12.024Z,21.23
2023-11-16T13:09:17.503Z,21.21
2023-11-16T13:10:23.047Z,21.23
2023-11-16T13:11:28.672Z,21.22
2023-11-16T13:12:34.168Z,21.21
2023-11-16T13:13:39.743Z,21.2
2023-11-16T13:14:45.282Z,21.19
2023-11-16T13:15:50.882Z,21.2
2023-11-16T13:16:56.554Z,21.2
2023-11-16T13:18:02.154Z,21.21
2023-11-16T13:19:07.867Z,21.21
2023-11-16T13:20:13.582Z,21.2
2023-11-16T13:21:19.155Z,21.2
2023-11-16T13:22:24.893Z,21.21
2023-11-16T13:23:30.383Z,21.2
2023-11-16T13:24:35.914Z,21.21
2023-11-16T13:25:41.533Z,21.22
2023-11-16T13:26:47.038Z,21.23
2023-11-16T13:27:52.522Z,21.23
2023-11-16T13:28:58.106Z,21.23
2023-11-16T13:30:03.601Z,21.22
2023-11-16T13:31:09.195Z,21.22
2023-11-16T13:32:14.891Z,21.22
2023-11-16T13:33:20.408Z,21.23
2023-11-16T13:34:25.939Z,21.23
2023-11-16T13:35:31.526Z,21.22
2023-11-16T13:36:37.058Z,21.22
2023-11-16T13:37:42.616Z,21.22
2023-11-16T13:38:48.082Z,21.22
2023-11-16T13:39:53.621Z,21.23
2023-11-16T13:40:59.509Z,21.23
2023-11-16T13:42:05.073Z,21.22
2023-11-16T13:43:10.636Z,21.23
2023-11-16T13:44:16.137Z,21.22
2023-11-16T13:45:21.659Z,21.21
2023-11-16T13:46:27.249Z,21.22
2023-11-16T13:47:32.952Z,21.22
2023-11-16T13:48:38.526Z,21.22
2023-11-16T13:49:44.118Z,21.22
2023-11-16T13:50:49.598Z,21.22
2023-11-16T13:51:55.617Z,21.21
2023-11-16T13:53:01.261Z,21.2
2023-11-16T13:54:06.808Z,21.19
2023-11-16T13:55:12.332Z,21.16
2023-11-16T13:56:17.878Z,21.15
2023-11-16T13:57:23.436Z,21.13
2023-11-16T13:58:29.019Z,21.12
2023-11-16T13:59:34.551Z,21.1
2023-11-16T14:00:40.051Z,21.11
2023-11-16T14:01:45.770Z,21.1
2023-11-16T14:02:51.551Z,21.08
2023-11-16T14:03:57.468Z,21.11
2023-11-16T14:05:03.477Z,21.08
2023-11-16T14:06:08.993Z,21.08
2023-11-16T14:07:14.535Z,21.07
2023-11-16T14:08:20.017Z,21.07
2023-11-16T14:09:25.531Z,21.08
2023-11-16T14:10:31.104Z,21.06